createdAt,value
2018-03-31T00:00:56.286Z,5.47
2018-03-31T00:05:58.441Z,6.40
2018-03-31T00:11:00.589Z,6.07
2018-03-31T00:16:02.747Z,5.27
2018-03-31T00:21:05.649Z,5.87
2018-03-31T00:26:07.801Z,6.23
2018-03-31T00:31:09.937Z,5.87
2018-03-31T00:36:12.099Z,5.97
2018-03-31T00:41:14.249Z,5.80
2018-03-31T00:46:17.157Z,4.53
2018-03-31T00:51:19.309Z,6.20
2018-03-31T00:56:21.449Z,6.27
2018-03-31T01:01:23.601Z,6.07
2018-03-31T01:06:26.507Z,5.90
2018-03-31T01:11:28.672Z,5.87
2018-03-31T01:16:30.826Z,6.33
2018-03-31T01:21:33.741Z,5.47
2018-03-31T01:26:35.873Z,6.03
2018-03-31T01:31:41.557Z,6.27
2018-03-31T01:36:43.691Z,6.27
2018-03-31T01:41:45.831Z,6.17
2018-03-31T01:46:47.981Z,6.43
2018-03-31T01:51:50.137Z,6.37
2018-03-31T01:56:52.278Z,5.63
2018-03-31T02:01:54.442Z,6.13
2018-03-31T02:06:57.365Z,5.40
2018-03-31T02:11:59.502Z,6.27
2018-03-31T02:17:01.657Z,6.03
2018-03-31T02:22:03.813Z,5.30
2018-03-31T02:27:06.719Z,5.30
2018-03-31T02:32:08.877Z,6.20
2018-03-31T02:37:11.011Z,5.87
2018-03-31T02:42:13.142Z,6.30
2018-03-31T02:47:15.278Z,6.33
2018-03-31T02:52:18.073Z,5.53
2018-03-31T02:57:20.206Z,5.53
2018-03-31T03:02:22.345Z,5.50
2018-03-31T03:07:24.503Z,5.70
2018-03-31T03:12:26.657Z,5.57
2018-03-31T03:17:28.798Z,6.13
2018-03-31T03:22:30.946Z,5.57
2018-03-31T03:27:33.099Z,5.07
2018-03-31T03:32:35.993Z,5.67
2018-03-31T03:37:38.155Z,6.40
2018-03-31T03:42:40.309Z,5.70
2018-03-31T03:47:42.446Z,6.20
2018-03-31T03:52:44.593Z,5.50
2018-03-31T03:57:47.518Z,6.37
2018-03-31T04:02:49.670Z,5.47
2018-03-31T04:07:51.825Z,5.27
2018-03-31T04:13:00.257Z,6.07
2018-03-31T04:18:02.418Z,5.93
2018-03-31T04:23:04.564Z,5.60
2018-03-31T04:28:06.699Z,6.20
2018-03-31T04:33:08.856Z,5.30
2018-03-31T04:38:11.769Z,6.20
2018-03-31T04:43:13.905Z,5.70
2018-03-31T04:48:16.059Z,5.17
2018-03-31T04:53:18.194Z,6.37
2018-03-31T04:58:20.342Z,6.13
2018-03-31T05:03:23.237Z,6.20
2018-03-31T05:08:25.398Z,6.17
2018-03-31T05:13:27.534Z,6.23
2018-03-31T05:18:29.693Z,5.70
2018-03-31T05:23:32.585Z,6.30
2018-03-31T05:28:34.718Z,6.17
2018-03-31T05:33:36.866Z,6.13
2018-03-31T05:38:40.926Z,6.83
2018-03-31T05:43:43.063Z,6.37
2018-03-31T05:48:45.213Z,7.13
2018-03-31T05:53:47.341Z,6.33
2018-03-31T05:58:49.487Z,6.70
2018-03-31T06:03:51.622Z,7.30
2018-03-31T06:08:53.801Z,6.87
2018-03-31T06:13:55.930Z,7.37
2018-03-31T06:18:58.109Z,7.17
2018-03-31T06:24:00.245Z,7.00
2018-03-31T06:29:02.383Z,6.93
2018-03-31T06:34:04.535Z,6.57
2018-03-31T06:39:06.699Z,7.33
2018-03-31T06:44:08.829Z,7.40
2018-03-31T06:49:10.981Z,7.43
2018-03-31T06:54:13.167Z,6.67
2018-03-31T06:59:15.330Z,7.80
2018-03-31T07:04:17.463Z,6.57
2018-03-31T07:09:19.622Z,7.97
2018-03-31T07:14:21.763Z,7.67
2018-03-31T07:19:23.918Z,8.37
2018-03-31T07:24:26.835Z,8.13
2018-03-31T07:29:28.990Z,7.17
2018-03-31T07:34:31.893Z,7.97
2018-03-31T07:39:34.050Z,8.03
2018-03-31T07:44:36.177Z,8.20
2018-03-31T07:49:40.223Z,7.23
2018-03-31T07:54:42.353Z,8.13
2018-03-31T07:59:44.508Z,7.83
2018-03-31T08:04:46.646Z,8.30
2018-03-31T08:09:54.319Z,8.30
2018-03-31T08:15:10.069Z,8.67
2018-03-31T08:20:12.217Z,7.93
2018-03-31T08:25:14.364Z,8.77
2018-03-31T08:30:16.513Z,9.53
2018-03-31T08:35:18.651Z,8.57
2018-03-31T08:40:20.798Z,9.77
2018-03-31T08:45:23.893Z,9.40
2018-03-31T08:50:26.054Z,7.93
2018-03-31T08:55:28.192Z,8.80
2018-03-31T09:00:30.358Z,8.60
2018-03-31T09:11:00.281Z,8.57
2018-03-31T09:16:02.409Z,9.33
2018-03-31T09:21:04.565Z,10.27
2018-03-31T09:26:26.002Z,10.20
2018-03-31T09:31:29.113Z,9.03
2018-03-31T09:36:31.256Z,10.90
2018-03-31T09:41:34.427Z,9.47
2018-03-31T09:46:36.635Z,9.87
2018-03-31T09:51:39.502Z,10.83
2018-03-31T09:56:41.658Z,9.40
2018-03-31T10:01:43.803Z,10.87
2018-03-31T10:06:45.955Z,10.67
2018-03-31T10:11:48.865Z,10.20
2018-03-31T10:16:54.164Z,10.93
2018-03-31T10:21:56.334Z,10.70
2018-03-31T10:26:58.469Z,11.07
2018-03-31T10:32:00.615Z,9.73
2018-03-31T10:37:02.762Z,10.30
2018-03-31T10:42:05.690Z,12.10
2018-03-31T10:47:07.849Z,11.23
2018-03-31T10:52:10.777Z,11.33
2018-03-31T19:23:37.687Z,21.87
2018-03-31T19:28:39.940Z,16.37
2018-03-31T19:33:42.857Z,16.30
2018-03-31T19:38:45.286Z,16.57
2018-03-31T19:43:47.504Z,16.57
2018-03-31T19:48:50.411Z,15.80
2018-03-31T19:53:52.590Z,15.70
2018-03-31T19:58:54.734Z,16.47
2018-03-31T20:03:56.891Z,15.33
2018-03-31T20:08:59.042Z,16.43
2018-03-31T20:14:01.207Z,15.70
2018-03-31T20:19:03.562Z,16.70
2018-03-31T20:24:05.721Z,17.17
2018-03-31T20:29:08.642Z,17.27
2018-03-31T20:34:12.565Z,18.73
2018-03-31T20:39:14.707Z,17.27
2018-03-31T20:44:17.629Z,16.63
2018-03-31T20:49:19.779Z,16.87
2018-03-31T20:54:21.928Z,16.53
2018-03-31T20:59:24.073Z,16.27
2018-03-31T21:04:26.238Z,16.07
2018-03-31T21:09:28.390Z,16.83
2018-03-31T21:14:30.555Z,16.43
2018-03-31T21:19:33.623Z,16.87
2018-03-31T21:24:35.777Z,17.20
2018-03-31T21:29:37.924Z,16.73
2018-03-31T21:34:40.071Z,15.73
2018-03-31T21:39:42.229Z,15.27
2018-03-31T21:44:45.146Z,13.47
2018-03-31T21:49:48.074Z,11.63
2018-03-31T21:54:50.233Z,12.90
2018-03-31T21:59:52.394Z,12.10
2018-03-31T22:04:54.535Z,11.57
2018-03-31T22:09:56.700Z,11.37
2018-03-31T22:15:04.402Z,12.47
2018-03-31T22:20:06.558Z,12.43
2018-03-31T22:25:08.714Z,13.10
2018-03-31T22:30:10.866Z,14.03
2018-03-31T22:35:13.005Z,13.97
2018-03-31T22:40:15.162Z,19.30
2018-03-31T22:45:17.306Z,20.30
2018-03-31T22:50:19.460Z,23.37
2018-03-31T22:55:22.362Z,26.13
2018-03-31T23:00:24.513Z,14.80
2018-03-31T23:05:26.647Z,15.03
2018-03-31T23:10:28.803Z,15.37
2018-03-31T23:15:30.937Z,18.37
2018-03-31T23:20:33.859Z,13.03
2018-03-31T23:25:36.786Z,11.93
2018-03-31T23:30:39.695Z,10.10
2018-03-31T23:35:41.855Z,9.30
2018-03-31T23:40:43.992Z,10.63
2018-03-31T23:45:46.150Z,10.13
2018-03-31T23:50:48.294Z,9.70
2018-03-31T23:55:50.453Z,9.40
